sensor_id;sensor_type;location;lat;lon;timestamp;P1;durP1;ratioP1;P2;durP2;ratioP2
29416;SDS011;28421;51.030;4.006;2023-04-12T03:19:35;0.90;;;0.90;;
29416;SDS011;28421;51.030;4.006;2023-04-12T03:22:02;3.63;;;1.20;;
29416;SDS011;28421;51.030;4.006;2023-04-12T03:24:31;1.77;;;1.30;;
29416;SDS011;28421;51.030;4.006;2023-04-12T03:27:02;1.42;;;1.15;;
29416;SDS011;28421;51.030;4.006;2023-04-12T03:29:31;4.47;;;1.08;;
29416;SDS011;28421;51.030;4.006;2023-04-12T03:31:57;3.25;;;1.27;;
29416;SDS011;28421;51.030;4.006;2023-04-12T03:34:24;3.60;;;1.00;;
29416;SDS011;28421;51.030;4.006;2023-04-12T03:37:00;1.25;;;1.15;;
29416;SDS011;28421;51.030;4.006;2023-04-12T03:39:37;1.27;;;1.17;;
29416;SDS011;28421;51.030;4.006;2023-04-12T03:42:06;1.92;;;0.95;;
29416;SDS011;28421;51.030;4.006;2023-04-12T03:44:32;2.63;;;1.20;;
29416;SDS011;28421;51.030;4.006;2023-04-12T03:47:01;1.25;;;1.08;;
29416;SDS011;28421;51.030;4.006;2023-04-12T03:49:32;0.88;;;0.88;;
29416;SDS011;28421;51.030;4.006;2023-04-12T03:51:59;1.02;;;0.93;;
29416;SDS011;28421;51.030;4.006;2023-04-12T03:54:24;2.55;;;0.85;;
29416;SDS011;28421;51.030;4.006;2023-04-12T03:56:55;3.30;;;1.35;;
29416;SDS011;28421;51.030;4.006;2023-04-12T03:59:26;2.17;;;0.98;;
29416;SDS011;28421;51.030;4.006;2023-04-12T04:01:54;0.70;;;0.70;;
29416;SDS011;28421;51.030;4.006;2023-04-12T04:04:22;1.05;;;0.95;;
29416;SDS011;28421;51.030;4.006;2023-04-12T04:06:51;1.73;;;1.52;;
29416;SDS011;28421;51.030;4.006;2023-04-12T04:09:18;1.05;;;0.77;;
29416;SDS011;28421;51.030;4.006;2023-04-12T04:11:44;2.22;;;1.15;;
29416;SDS011;28421;51.030;4.006;2023-04-12T04:14:11;1.48;;;0.93;;
29416;SDS011;28421;51.030;4.006;2023-04-12T04:16:37;0.73;;;0.73;;
29416;SDS011;28421;51.030;4.006;2023-04-12T04:19:05;1.92;;;1.10;;
29416;SDS011;28421;51.030;4.006;2023-04-12T04:21:31;2.15;;;1.15;;
29416;SDS011;28421;51.030;4.006;2023-04-12T04:24:00;0.80;;;0.80;;
29416;SDS011;28421;51.030;4.006;2023-04-12T04:26:29;4.00;;;1.60;;
29416;SDS011;28421;51.030;4.006;2023-04-12T04:29:04;1.63;;;1.52;;
29416;SDS011;28421;51.030;4.006;2023-04-12T04:31:34;1.95;;;1.33;;
29416;SDS011;28421;51.030;4.006;2023-04-12T04:34:02;1.90;;;1.15;;
29416;SDS011;28421;51.030;4.006;2023-04-12T04:36:33;3.08;;;2.72;;
29416;SDS011;28421;51.030;4.006;2023-04-12T04:39:00;1.75;;;1.38;;
29416;SDS011;28421;51.030;4.006;2023-04-12T04:41:52;2.38;;;1.67;;
29416;SDS011;28421;51.030;4.006;2023-04-12T04:44:37;2.90;;;1.85;;
29416;SDS011;28421;51.030;4.006;2023-04-12T04:47:07;3.95;;;1.80;;
29416;SDS011;28421;51.030;4.006;2023-04-12T04:49:33;2.15;;;1.75;;
29416;SDS011;28421;51.030;4.006;2023-04-12T04:52:04;4.47;;;2.05;;
29416;SDS011;28421;51.030;4.006;2023-04-12T04:54:31;3.03;;;1.60;;
29416;SDS011;28421;51.030;4.006;2023-04-12T04:56:58;8.32;;;2.13;;
29416;SDS011;28421;51.030;4.006;2023-04-12T04:59:24;4.45;;;2.15;;
29416;SDS011;28421;51.030;4.006;2023-04-12T05:01:55;2.83;;;2.35;;
29416;SDS011;28421;51.030;4.006;2023-04-12T05:04:20;5.97;;;1.88;;
29416;SDS011;28421;51.030;4.006;2023-04-12T05:06:45;6.50;;;2.42;;
29416;SDS011;28421;51.030;4.006;2023-04-12T05:09:13;3.95;;;2.20;;
29416;SDS011;28421;51.030;4.006;2023-04-12T05:11:45;2.88;;;2.20;;
29416;SDS011;28421;51.030;4.006;2023-04-12T05:14:11;4.28;;;2.42;;
29416;SDS011;28421;51.030;4.006;2023-04-12T05:16:37;6.80;;;2.13;;
29416;SDS011;28421;51.030;4.006;2023-04-12T05:19:02;6.03;;;2.30;;
29416;SDS011;28421;51.030;4.006;2023-04-12T05:21:28;6.10;;;3.15;;
29416;SDS011;28421;51.030;4.006;2023-04-12T05:23:54;5.72;;;1.95;;
29416;SDS011;28421;51.030;4.006;2023-04-12T05:26:20;11.45;;;2.15;;
29416;SDS011;28421;51.030;4.006;2023-04-12T05:28:48;10.55;;;2.35;;
29416;SDS011;28421;51.030;4.006;2023-04-12T05:31:17;5.25;;;2.00;;
29416;SDS011;28421;51.030;4.006;2023-04-12T05:33:43;5.63;;;1.77;;
29416;SDS011;28421;51.030;4.006;2023-04-12T05:36:10;6.22;;;1.65;;
29416;SDS011;28421;51.030;4.006;2023-04-12T05:38:36;5.22;;;2.45;;
29416;SDS011;28421;51.030;4.006;2023-04-12T05:41:07;2.90;;;1.63;;
29416;SDS011;28421;51.030;4.006;2023-04-12T05:43:33;3.38;;;1.38;;
29416;SDS011;28421;51.030;4.006;2023-04-12T05:46:01;12.98;;;2.42;;
29416;SDS011;28421;51.030;4.006;2023-04-12T05:48:28;6.13;;;1.80;;
29416;SDS011;28421;51.030;4.006;2023-04-12T05:50:55;7.18;;;2.22;;
29416;SDS011;28421;51.030;4.006;2023-04-12T05:53:21;6.82;;;1.80;;
29416;SDS011;28421;51.030;4.006;2023-04-12T05:55:47;6.90;;;1.80;;
29416;SDS011;28421;51.030;4.006;2023-04-12T05:58:14;5.60;;;1.90;;
29416;SDS011;28421;51.030;4.006;2023-04-12T06:00:40;7.93;;;1.58;;
29416;SDS011;28421;51.030;4.006;2023-04-12T06:03:09;6.32;;;1.75;;
29416;SDS011;28421;51.030;4.006;2023-04-12T06:05:36;5.63;;;1.92;;
29416;SDS011;28421;51.030;4.006;2023-04-12T06:08:02;8.55;;;2.92;;
29416;SDS011;28421;51.030;4.006;2023-04-12T06:10:29;7.47;;;1.67;;
29416;SDS011;28421;51.030;4.006;2023-04-12T06:12:55;12.52;;;3.05;;
29416;SDS011;28421;51.030;4.006;2023-04-12T06:15:21;7.95;;;1.40;;
29416;SDS011;28421;51.030;4.006;2023-04-12T06:17:52;2.50;;;1.55;;
29416;SDS011;28421;51.030;4.006;2023-04-12T06:20:18;4.65;;;1.30;;
29416;SDS011;28421;51.030;4.006;2023-04-12T06:22:44;5.20;;;2.13;;
29416;SDS011;28421;51.030;4.006;2023-04-12T06:25:12;2.67;;;1.50;;
29416;SDS011;28421;51.030;4.006;2023-04-12T06:27:38;6.47;;;2.75;;
29416;SDS011;28421;51.030;4.006;2023-04-12T06:30:05;4.35;;;1.58;;
29416;SDS011;28421;51.030;4.006;2023-04-12T06:32:33;9.02;;;1.55;;
29416;SDS011;28421;51.030;4.006;2023-04-12T06:34:59;8.30;;;1.85;;
29416;SDS011;28421;51.030;4.006;2023-04-12T06:37:24;7.03;;;1.85;;
29416;SDS011;28421;51.030;4.006;2023-04-12T06:39:50;19.48;;;3.13;;
29416;SDS011;28421;51.030;4.006;2023-04-12T06:42:16;4.93;;;1.55;;
29416;SDS011;28421;51.030;4.006;2023-04-12T06:44:42;10.30;;;1.30;;
29416;SDS011;28421;51.030;4.006;2023-04-12T06:47:07;5.75;;;1.98;;
29416;SDS011;28421;51.030;4.006;2023-04-12T06:49:33;3.67;;;2.22;;
29416;SDS011;28421;51.030;4.006;2023-04-12T06:51:59;9.75;;;1.80;;
29416;SDS011;28421;51.030;4.006;2023-04-12T06:54:24;3.92;;;1.70;;
29416;SDS011;28421;51.030;4.006;2023-04-12T06:56:50;5.30;;;2.25;;
29416;SDS011;28421;51.030;4.006;2023-04-12T06:59:15;4.70;;;2.25;;
29416;SDS011;28421;51.030;4.006;2023-04-12T07:01:41;3.15;;;1.90;;
29416;SDS011;28421;51.030;4.006;2023-04-12T07:04:07;3.80;;;2.10;;
29416;SDS011;28421;51.030;4.006;2023-04-12T07:06:32;6.70;;;1.90;;
29416;SDS011;28421;51.030;4.006;2023-04-12T07:08:58;11.93;;;2.55;;
29416;SDS011;28421;51.030;4.006;2023-04-12T07:11:23;5.78;;;3.10;;
29416;SDS011;28421;51.030;4.006;2023-04-12T07:13:49;11.05;;;2.03;;
29416;SDS011;28421;51.030;4.006;2023-04-12T07:16:15;9.85;;;2.20;;
29416;SDS011;28421;51.030;4.006;2023-04-12T07:18:41;12.68;;;1.40;;
29416;SDS011;28421;51.030;4.006;2023-04-12T07:21:07;13.05;;;2.40;;
29416;SDS011;28421;51.030;4.006;2023-04-12T07:23:32;5.90;;;2.40;;
29416;SDS011;28421;51.030;4.006;2023-04-12T07:25:58;12.32;;;2.28;;
29416;SDS011;28421;51.030;4.006;2023-04-12T07:28:25;12.63;;;3.20;;
29416;SDS011;28421;51.030;4.006;2023-04-12T07:30:50;13.52;;;1.90;;
29416;SDS011;28421;51.030;4.006;2023-04-12T07:33:15;4.85;;;2.28;;
29416;SDS011;28421;51.030;4.006;2023-04-12T07:35:41;8.57;;;1.73;;
29416;SDS011;28421;51.030;4.006;2023-04-12T07:38:06;9.57;;;2.58;;
29416;SDS011;28421;51.030;4.006;2023-04-12T07:40:32;4.07;;;1.75;;
29416;SDS011;28421;51.030;4.006;2023-04-12T07:42:57;11.95;;;1.95;;
29416;SDS011;28421;51.030;4.006;2023-04-12T07:45:23;14.93;;;2.28;;
29416;SDS011;28421;51.030;4.006;2023-04-12T07:47:48;7.68;;;2.28;;
29416;SDS011;28421;51.030;4.006;2023-04-12T07:50:14;20.23;;;2.40;;
29416;SDS011;28421;51.030;4.006;2023-04-12T07:52:40;9.60;;;2.20;;
29416;SDS011;28421;51.030;4.006;2023-04-12T07:55:06;13.35;;;2.90;;
29416;SDS011;28421;51.030;4.006;2023-04-12T07:57:31;6.07;;;2.08;;
29416;SDS011;28421;51.030;4.006;2023-04-12T07:59:57;6.15;;;2.20;;
29416;SDS011;28421;51.030;4.006;2023-04-12T08:02:22;9.27;;;3.03;;
29416;SDS011;28421;51.030;4.006;2023-04-12T08:04:51;7.90;;;2.25;;
29416;SDS011;28421;51.030;4.006;2023-04-12T08:07:17;7.45;;;1.95;;
29416;SDS011;28421;51.030;4.006;2023-04-12T08:09:43;14.23;;;2.20;;
29416;SDS011;28421;51.030;4.006;2023-04-12T08:12:09;7.18;;;3.03;;
29416;SDS011;28421;51.030;4.006;2023-04-12T08:14:35;13.35;;;2.65;;
29416;SDS011;28421;51.030;4.006;2023-04-12T08:17:01;12.10;;;2.30;;
29416;SDS011;28421;51.030;4.006;2023-04-12T08:19:26;4.32;;;2.72;;
29416;SDS011;28421;51.030;4.006;2023-04-12T08:21:52;11.27;;;2.35;;
29416;SDS011;28421;51.030;4.006;2023-04-12T08:24:17;3.83;;;1.88;;
29416;SDS011;28421;51.030;4.006;2023-04-12T08:26:44;7.63;;;1.45;;
29416;SDS011;28421;51.030;4.006;2023-04-12T08:29:10;7.53;;;2.20;;
29416;SDS011;28421;51.030;4.006;2023-04-12T08:31:36;4.75;;;1.73;;
29416;SDS011;28421;51.030;4.006;2023-04-12T08:34:02;6.70;;;2.40;;
29416;SDS011;28421;51.030;4.006;2023-04-12T08:36:27;14.10;;;1.92;;
29416;SDS011;28421;51.030;4.006;2023-04-12T08:38:56;8.38;;;1.55;;
29416;SDS011;28421;51.030;4.006;2023-04-12T08:41:22;4.97;;;1.23;;
29416;SDS011;28421;51.030;4.006;2023-04-12T08:43:48;14.15;;;2.40;;
29416;SDS011;28421;51.030;4.006;2023-04-12T08:46:15;5.53;;;1.35;;
29416;SDS011;28421;51.030;4.006;2023-04-12T08:48:43;10.80;;;1.67;;
29416;SDS011;28421;51.030;4.006;2023-04-12T08:51:12;7.72;;;1.70;;
29416;SDS011;28421;51.030;4.006;2023-04-12T08:53:38;6.00;;;1.60;;
29416;SDS011;28421;51.030;4.006;2023-04-12T08:56:05;2.17;;;1.33;;
29416;SDS011;28421;51.030;4.006;2023-04-12T08:58:33;5.45;;;1.65;;
29416;SDS011;28421;51.030;4.006;2023-04-12T09:01:01;2.03;;;1.20;;
29416;SDS011;28421;51.030;4.006;2023-04-12T09:03:27;7.30;;;2.67;;
29416;SDS011;28421;51.030;4.006;2023-04-12T09:05:55;12.27;;;2.17;;
29416;SDS011;28421;51.030;4.006;2023-04-12T09:08:20;7.75;;;1.20;;
29416;SDS011;28421;51.030;4.006;2023-04-12T09:10:46;6.32;;;1.55;;
29416;SDS011;28421;51.030;4.006;2023-04-12T09:13:11;7.20;;;1.42;;
29416;SDS011;28421;51.030;4.006;2023-04-12T09:15:47;11.75;;;1.90;;
29416;SDS011;28421;51.030;4.006;2023-04-12T09:18:13;12.38;;;2.17;;
29416;SDS011;28421;51.030;4.006;2023-04-12T09:20:38;10.15;;;1.70;;
29416;SDS011;28421;51.030;4.006;2023-04-12T09:23:17;9.25;;;2.85;;
29416;SDS011;28421;51.030;4.006;2023-04-12T09:25:44;7.75;;;1.88;;
29416;SDS011;28421;51.030;4.006;2023-04-12T09:30:44;16.52;;;2.22;;
29416;SDS011;28421;51.030;4.006;2023-04-12T09:33:15;13.85;;;3.78;;
29416;SDS011;28421;51.030;4.006;2023-04-12T09:35:40;11.48;;;2.10;;
29416;SDS011;28421;51.030;4.006;2023-04-12T09:38:07;10.18;;;2.80;;
29416;SDS011;28421;51.030;4.006;2023-04-12T09:40:34;24.83;;;3.83;;
29416;SDS011;28421;51.030;4.006;2023-04-12T09:43:00;16.42;;;3.45;;
29416;SDS011;28421;51.030;4.006;2023-04-12T09:45:26;14.02;;;2.88;;
29416;SDS011;28421;51.030;4.006;2023-04-12T09:47:53;6.22;;;2.45;;
29416;SDS011;28421;51.030;4.006;2023-04-12T09:50:25;17.55;;;2.58;;
29416;SDS011;28421;51.030;4.006;2023-04-12T09:52:56;31.77;;;4.83;;
29416;SDS011;28421;51.030;4.006;2023-04-12T09:55:22;24.40;;;4.68;;
29416;SDS011;28421;51.030;4.006;2023-04-12T09:57:50;7.55;;;2.17;;
29416;SDS011;28421;51.030;4.006;2023-04-12T10:00:16;12.80;;;2.90;;
29416;SDS011;28421;51.030;4.006;2023-04-12T10:02:43;12.13;;;2.10;;
29416;SDS011;28421;51.030;4.006;2023-04-12T10:05:14;5.72;;;1.73;;
29416;SDS011;28421;51.030;4.006;2023-04-12T10:07:41;12.18;;;3.08;;
29416;SDS011;28421;51.030;4.006;2023-04-12T10:10:07;17.98;;;3.42;;
29416;SDS011;28421;51.030;4.006;2023-04-12T10:12:36;11.13;;;2.40;;
29416;SDS011;28421;51.030;4.006;2023-04-12T10:15:03;13.73;;;3.20;;
29416;SDS011;28421;51.030;4.006;2023-04-12T10:18:10;14.83;;;3.00;;
29416;SDS011;28421;51.030;4.006;2023-04-12T10:20:30;10.32;;;2.13;;
29416;SDS011;28421;51.030;4.006;2023-04-12T10:22:59;26.25;;;4.70;;
29416;SDS011;28421;51.030;4.006;2023-04-12T10:25:27;8.65;;;2.40;;
29416;SDS011;28421;51.030;4.006;2023-04-12T10:27:55;8.25;;;2.47;;
29416;SDS011;28421;51.030;4.006;2023-04-12T10:35:27;11.85;;;2.30;;
29416;SDS011;28421;51.030;4.006;2023-04-12T10:40:26;13.52;;;1.67;;
29416;SDS011;28421;51.030;4.006;2023-04-12T10:45:50;13.85;;;2.88;;
29416;SDS011;28421;51.030;4.006;2023-04-12T10:51:18;8.77;;;2.47;;
29416;SDS011;28421;51.030;4.006;2023-04-12T10:59:00;12.77;;;2.75;;
29416;SDS011;28421;51.030;4.006;2023-04-12T11:01:37;5.70;;;1.70;;
29416;SDS011;28421;51.030;4.006;2023-04-12T11:07:00;7.60;;;2.67;;
29416;SDS011;28421;51.030;4.006;2023-04-12T11:09:39;4.38;;;1.88;;
29416;SDS011;28421;51.030;4.006;2023-04-12T11:14:33;7.35;;;1.88;;
29416;SDS011;28421;51.030;4.006;2023-04-12T11:19:35;4.60;;;1.63;;
29416;SDS011;28421;51.030;4.006;2023-04-12T11:22:03;11.48;;;1.90;;
29416;SDS011;28421;51.030;4.006;2023-04-12T11:24:29;9.10;;;1.70;;
29416;SDS011;28421;51.030;4.006;2023-04-12T11:26:55;4.75;;;1.70;;
29416;SDS011;28421;51.030;4.006;2023-04-12T11:29:27;5.03;;;1.08;;
29416;SDS011;28421;51.030;4.006;2023-04-12T11:31:53;1.48;;;0.93;;
29416;SDS011;28421;51.030;4.006;2023-04-12T11:34:21;2.95;;;1.20;;
29416;SDS011;28421;51.030;4.006;2023-04-12T11:36:48;4.43;;;0.85;;
29416;SDS011;28421;51.030;4.006;2023-04-12T11:39:17;1.13;;;0.50;;
29416;SDS011;28421;51.030;4.006;2023-04-12T11:41:44;3.60;;;0.70;;
29416;SDS011;28421;51.030;4.006;2023-04-12T11:44:11;3.17;;;0.73;;
29416;SDS011;28421;51.030;4.006;2023-04-12T11:46:37;8.82;;;1.77;;
29416;SDS011;28421;51.030;4.006;2023-04-12T11:49:03;6.65;;;1.20;;
29416;SDS011;28421;51.030;4.006;2023-04-12T11:51:29;8.93;;;2.00;;
29416;SDS011;28421;51.030;4.006;2023-04-12T11:53:56;3.78;;;1.60;;
29416;SDS011;28421;51.030;4.006;2023-04-12T11:56:23;5.20;;;1.30;;
29416;SDS011;28421;51.030;4.006;2023-04-12T11:58:49;4.25;;;0.95;;
29416;SDS011;28421;51.030;4.006;2023-04-12T12:01:15;6.30;;;1.55;;
29416;SDS011;28421;51.030;4.006;2023-04-12T12:03:43;8.00;;;1.67;;
29416;SDS011;28421;51.030;4.006;2023-04-12T12:06:09;5.30;;;0.82;;
29416;SDS011;28421;51.030;4.006;2023-04-12T12:08:35;3.22;;;0.80;;
29416;SDS011;28421;51.030;4.006;2023-04-12T12:11:01;7.85;;;0.88;;
29416;SDS011;28421;51.030;4.006;2023-04-12T12:13:27;7.10;;;1.15;;
29416;SDS011;28421;51.030;4.006;2023-04-12T12:16:08;5.20;;;1.17;;
29416;SDS011;28421;51.030;4.006;2023-04-12T12:18:38;3.72;;;1.10;;
29416;SDS011;28421;51.030;4.006;2023-04-12T12:21:06;6.30;;;1.63;;
29416;SDS011;28421;51.030;4.006;2023-04-12T12:23:33;2.92;;;1.25;;
29416;SDS011;28421;51.030;4.006;2023-04-12T12:26:00;7.97;;;1.17;;
29416;SDS011;28421;51.030;4.006;2023-04-12T12:28:36;3.80;;;0.95;;
29416;SDS011;28421;51.030;4.006;2023-04-12T12:31:06;6.10;;;1.02;;
29416;SDS011;28421;51.030;4.006;2023-04-12T12:33:37;5.68;;;0.90;;
29416;SDS011;28421;51.030;4.006;2023-04-12T12:36:04;2.00;;;0.82;;
29416;SDS011;28421;51.030;4.006;2023-04-12T12:38:36;4.65;;;1.05;;
29416;SDS011;28421;51.030;4.006;2023-04-12T12:43:58;3.20;;;0.85;;
29416;SDS011;28421;51.030;4.006;2023-04-12T12:46:24;5.07;;;1.00;;
29416;SDS011;28421;51.030;4.006;2023-04-12T12:48:50;1.48;;;0.52;;
29416;SDS011;28421;51.030;4.006;2023-04-12T12:51:16;2.80;;;0.93;;
29416;SDS011;28421;51.030;4.006;2023-04-12T12:53:44;4.75;;;0.93;;
29416;SDS011;28421;51.030;4.006;2023-04-12T12:56:10;2.33;;;1.13;;
29416;SDS011;28421;51.030;4.006;2023-04-12T12:58:37;2.47;;;1.02;;
29416;SDS011;28421;51.030;4.006;2023-04-12T13:01:04;3.55;;;1.00;;
29416;SDS011;28421;51.030;4.006;2023-04-12T13:03:30;4.03;;;1.10;;
29416;SDS011;28421;51.030;4.006;2023-04-12T13:05:56;2.67;;;1.30;;
29416;SDS011;28421;51.030;4.006;2023-04-12T13:08:22;4.47;;;0.98;;
29416;SDS011;28421;51.030;4.006;2023-04-12T13:10:48;1.58;;;0.88;;
29416;SDS011;28421;51.030;4.006;2023-04-12T13:13:14;2.65;;;1.25;;
29416;SDS011;28421;51.030;4.006;2023-04-12T13:15:39;0.75;;;0.75;;
29416;SDS011;28421;51.030;4.006;2023-04-12T13:18:05;3.05;;;1.08;;
29416;SDS011;28421;51.030;4.006;2023-04-12T13:20:30;6.53;;;0.98;;
29416;SDS011;28421;51.030;4.006;2023-04-12T13:22:56;2.95;;;1.00;;
29416;SDS011;28421;51.030;4.006;2023-04-12T13:25:21;4.53;;;1.27;;
29416;SDS011;28421;51.030;4.006;2023-04-12T13:27:47;1.08;;;0.77;;
29416;SDS011;28421;51.030;4.006;2023-04-12T13:30:13;4.85;;;1.10;;
29416;SDS011;28421;51.030;4.006;2023-04-12T13:32:39;3.92;;;0.95;;
29416;SDS011;28421;51.030;4.006;2023-04-12T13:35:05;10.60;;;1.60;;
29416;SDS011;28421;51.030;4.006;2023-04-12T13:37:30;2.53;;;1.30;;
29416;SDS011;28421;51.030;4.006;2023-04-12T13:39:57;3.50;;;1.00;;
29416;SDS011;28421;51.030;4.006;2023-04-12T13:42:22;4.65;;;1.65;;
29416;SDS011;28421;51.030;4.006;2023-04-12T13:44:48;17.88;;;2.10;;
29416;SDS011;28421;51.030;4.006;2023-04-12T13:47:14;1.73;;;1.17;;
29416;SDS011;28421;51.030;4.006;2023-04-12T13:49:40;21.38;;;2.83;;
29416;SDS011;28421;51.030;4.006;2023-04-12T13:52:05;7.13;;;1.15;;
29416;SDS011;28421;51.030;4.006;2023-04-12T13:54:31;6.00;;;1.13;;
29416;SDS011;28421;51.030;4.006;2023-04-12T13:56:57;7.32;;;1.73;;
29416;SDS011;28421;51.030;4.006;2023-04-12T13:59:23;4.32;;;1.38;;
29416;SDS011;28421;51.030;4.006;2023-04-12T14:01:50;2.05;;;1.05;;
29416;SDS011;28421;51.030;4.006;2023-04-12T14:04:15;1.45;;;0.80;;
29416;SDS011;28421;51.030;4.006;2023-04-12T14:06:41;5.45;;;1.25;;
29416;SDS011;28421;51.030;4.006;2023-04-12T14:09:06;3.22;;;1.05;;
29416;SDS011;28421;51.030;4.006;2023-04-12T14:11:45;1.13;;;0.50;;
29416;SDS011;28421;51.030;4.006;2023-04-12T14:14:11;2.50;;;0.98;;
29416;SDS011;28421;51.030;4.006;2023-04-12T14:16:37;3.65;;;0.80;;
29416;SDS011;28421;51.030;4.006;2023-04-12T14:19:02;3.45;;;0.85;;
29416;SDS011;28421;51.030;4.006;2023-04-12T14:21:27;3.65;;;1.42;;
29416;SDS011;28421;51.030;4.006;2023-04-12T14:23:53;2.70;;;0.85;;
29416;SDS011;28421;51.030;4.006;2023-04-12T14:26:19;5.32;;;1.20;;
29416;SDS011;28421;51.030;4.006;2023-04-12T14:28:45;5.32;;;1.45;;
29416;SDS011;28421;51.030;4.006;2023-04-12T14:31:10;1.08;;;0.60;;
29416;SDS011;28421;51.030;4.006;2023-04-12T14:33:35;9.48;;;1.67;;
29416;SDS011;28421;51.030;4.006;2023-04-12T14:36:01;6.82;;;1.75;;
29416;SDS011;28421;51.030;4.006;2023-04-12T14:38:29;2.90;;;1.00;;
29416;SDS011;28421;51.030;4.006;2023-04-12T14:40:54;1.55;;;0.63;;
29416;SDS011;28421;51.030;4.006;2023-04-12T14:43:20;8.15;;;1.20;;
29416;SDS011;28421;51.030;4.006;2023-04-12T14:45:46;2.95;;;1.25;;
29416;SDS011;28421;51.030;4.006;2023-04-12T14:48:11;5.13;;;1.67;;
29416;SDS011;28421;51.030;4.006;2023-04-12T14:50:37;4.45;;;1.00;;
29416;SDS011;28421;51.030;4.006;2023-04-12T14:53:03;5.03;;;1.17;;
29416;SDS011;28421;51.030;4.006;2023-04-12T14:55:28;6.35;;;1.35;;
29416;SDS011;28421;51.030;4.006;2023-04-12T14:57:53;2.63;;;1.13;;
29416;SDS011;28421;51.030;4.006;2023-04-12T15:00:19;9.68;;;1.77;;
29416;SDS011;28421;51.030;4.006;2023-04-12T15:02:45;3.28;;;1.00;;
29416;SDS011;28421;51.030;4.006;2023-04-12T15:05:12;3.17;;;1.50;;
29416;SDS011;28421;51.030;4.006;2023-04-12T15:07:38;7.65;;;1.38;;
29416;SDS011;28421;51.030;4.006;2023-04-12T15:10:04;4.25;;;1.20;;
29416;SDS011;28421;51.030;4.006;2023-04-12T15:12:30;4.75;;;1.00;;
29416;SDS011;28421;51.030;4.006;2023-04-12T15:14:59;5.63;;;1.35;;
29416;SDS011;28421;51.030;4.006;2023-04-12T15:17:27;5.47;;;1.30;;
29416;SDS011;28421;51.030;4.006;2023-04-12T15:19:55;7.82;;;0.98;;
29416;SDS011;28421;51.030;4.006;2023-04-12T15:22:21;3.35;;;1.10;;
29416;SDS011;28421;51.030;4.006;2023-04-12T15:24:49;4.78;;;1.60;;
29416;SDS011;28421;51.030;4.006;2023-04-12T15:27:15;4.60;;;1.60;;
29416;SDS011;28421;51.030;4.006;2023-04-12T15:29:40;4.65;;;0.93;;
29416;SDS011;28421;51.030;4.006;2023-04-12T15:32:06;3.15;;;1.08;;
29416;SDS011;28421;51.030;4.006;2023-04-12T15:34:33;5.72;;;1.05;;
29416;SDS011;28421;51.030;4.006;2023-04-12T15:36:58;2.00;;;0.82;;
29416;SDS011;28421;51.030;4.006;2023-04-12T15:39:24;1.98;;;0.90;;
29416;SDS011;28421;51.030;4.006;2023-04-12T15:41:50;3.22;;;1.20;;
29416;SDS011;28421;51.030;4.006;2023-04-12T15:44:16;4.82;;;0.80;;
29416;SDS011;28421;51.030;4.006;2023-04-12T15:46:41;3.10;;;1.02;;
29416;SDS011;28421;51.030;4.006;2023-04-12T15:49:07;2.22;;;1.17;;
29416;SDS011;28421;51.030;4.006;2023-04-12T15:51:33;4.13;;;1.25;;
29416;SDS011;28421;51.030;4.006;2023-04-12T15:54:02;3.15;;;1.33;;
29416;SDS011;28421;51.030;4.006;2023-04-12T15:56:28;3.08;;;0.90;;
29416;SDS011;28421;51.030;4.006;2023-04-12T15:58:53;3.10;;;0.75;;
29416;SDS011;28421;51.030;4.006;2023-04-12T16:01:21;3.30;;;0.82;;
29416;SDS011;28421;51.030;4.006;2023-04-12T16:03:50;4.60;;;1.02;;
29416;SDS011;28421;51.030;4.006;2023-04-12T16:06:16;3.70;;;0.80;;
29416;SDS011;28421;51.030;4.006;2023-04-12T16:11:12;5.38;;;1.30;;
29416;SDS011;28421;51.030;4.006;2023-04-12T16:13:42;2.17;;;1.38;;
29416;SDS011;28421;51.030;4.006;2023-04-12T16:16:10;6.13;;;1.85;;
29416;SDS011;28421;51.030;4.006;2023-04-12T16:18:39;2.15;;;1.13;;
29416;SDS011;28421;51.030;4.006;2023-04-12T16:21:06;3.00;;;0.80;;
29416;SDS011;28421;51.030;4.006;2023-04-12T16:23:33;0.70;;;0.57;;
29416;SDS011;28421;51.030;4.006;2023-04-12T16:25:59;1.77;;;0.95;;
29416;SDS011;28421;51.030;4.006;2023-04-12T16:28:25;2.90;;;1.02;;
29416;SDS011;28421;51.030;4.006;2023-04-12T16:30:51;6.90;;;1.10;;
29416;SDS011;28421;51.030;4.006;2023-04-12T16:33:16;4.32;;;1.02;;
29416;SDS011;28421;51.030;4.006;2023-04-12T16:35:42;2.10;;;1.15;;
29416;SDS011;28421;51.030;4.006;2023-04-12T16:38:07;3.20;;;0.90;;
29416;SDS011;28421;51.030;4.006;2023-04-12T16:40:34;4.35;;;1.13;;
29416;SDS011;28421;51.030;4.006;2023-04-12T16:43:00;5.15;;;1.00;;
29416;SDS011;28421;51.030;4.006;2023-04-12T16:45:25;2.83;;;1.08;;
29416;SDS011;28421;51.030;4.006;2023-04-12T16:47:51;0.75;;;0.75;;
29416;SDS011;28421;51.030;4.006;2023-04-12T16:50:16;1.38;;;0.90;;
29416;SDS011;28421;51.030;4.006;2023-04-12T16:52:42;2.90;;;0.73;;
29416;SDS011;28421;51.030;4.006;2023-04-12T16:55:08;1.85;;;0.85;;
29416;SDS011;28421;51.030;4.006;2023-04-12T16:57:37;3.67;;;2.42;;
29416;SDS011;28421;51.030;4.006;2023-04-12T17:00:05;1.30;;;0.57;;
29416;SDS011;28421;51.030;4.006;2023-04-12T17:02:38;3.05;;;0.88;;
29416;SDS011;28421;51.030;4.006;2023-04-12T17:05:04;1.70;;;0.75;;
29416;SDS011;28421;51.030;4.006;2023-04-12T17:07:30;1.63;;;0.63;;
29416;SDS011;28421;51.030;4.006;2023-04-12T17:09:55;3.97;;;1.13;;
29416;SDS011;28421;51.030;4.006;2023-04-12T17:12:21;1.10;;;1.00;;
29416;SDS011;28421;51.030;4.006;2023-04-12T17:14:46;5.13;;;1.15;;
29416;SDS011;28421;51.030;4.006;2023-04-12T17:17:11;2.78;;;1.35;;
29416;SDS011;28421;51.030;4.006;2023-04-12T17:19:37;2.20;;;0.70;;
29416;SDS011;28421;51.030;4.006;2023-04-12T17:22:04;3.03;;;1.27;;
29416;SDS011;28421;51.030;4.006;2023-04-12T17:24:29;3.17;;;1.10;;
29416;SDS011;28421;51.030;4.006;2023-04-12T17:26:55;1.98;;;0.70;;
29416;SDS011;28421;51.030;4.006;2023-04-12T17:29:21;5.00;;;1.27;;
29416;SDS011;28421;51.030;4.006;2023-04-12T17:31:46;3.40;;;1.05;;
29416;SDS011;28421;51.030;4.006;2023-04-12T17:34:13;3.47;;;0.95;;
29416;SDS011;28421;51.030;4.006;2023-04-12T17:36:38;2.03;;;1.70;;
29416;SDS011;28421;51.030;4.006;2023-04-12T17:39:03;0.80;;;0.80;;
29416;SDS011;28421;51.030;4.006;2023-04-12T17:41:29;3.60;;;1.08;;
29416;SDS011;28421;51.030;4.006;2023-04-12T17:43:55;6.70;;;0.90;;
29416;SDS011;28421;51.030;4.006;2023-04-12T17:46:20;1.45;;;0.85;;
29416;SDS011;28421;51.030;4.006;2023-04-12T17:48:48;1.42;;;0.95;;
29416;SDS011;28421;51.030;4.006;2023-04-12T17:51:13;1.83;;;0.75;;
29416;SDS011;28421;51.030;4.006;2023-04-12T17:53:40;6.05;;;1.10;;
29416;SDS011;28421;51.030;4.006;2023-04-12T17:56:06;2.13;;;1.15;;
29416;SDS011;28421;51.030;4.006;2023-04-12T17:58:32;2.05;;;1.13;;
29416;SDS011;28421;51.030;4.006;2023-04-12T18:00:57;1.00;;;0.80;;
29416;SDS011;28421;51.030;4.006;2023-04-12T18:03:23;1.20;;;1.00;;
29416;SDS011;28421;51.030;4.006;2023-04-12T18:05:50;1.45;;;0.88;;
29416;SDS011;28421;51.030;4.006;2023-04-12T18:08:17;4.47;;;1.05;;
29416;SDS011;28421;51.030;4.006;2023-04-12T18:10:42;2.20;;;1.02;;
29416;SDS011;28421;51.030;4.006;2023-04-12T18:13:08;2.78;;;1.17;;
29416;SDS011;28421;51.030;4.006;2023-04-12T18:15:33;0.82;;;0.82;;
29416;SDS011;28421;51.030;4.006;2023-04-12T18:17:59;1.00;;;0.93;;
29416;SDS011;28421;51.030;4.006;2023-04-12T18:20:31;0.73;;;0.70;;
29416;SDS011;28421;51.030;4.006;2023-04-12T18:22:57;4.10;;;0.70;;
29416;SDS011;28421;51.030;4.006;2023-04-12T18:25:38;1.27;;;0.93;;
29416;SDS011;28421;51.030;4.006;2023-04-12T18:28:24;1.30;;;1.20;;
29416;SDS011;28421;51.030;4.006;2023-04-12T18:30:49;1.73;;;1.38;;
29416;SDS011;28421;51.030;4.006;2023-04-12T18:33:15;2.85;;;1.10;;
29416;SDS011;28421;51.030;4.006;2023-04-12T18:35:40;3.60;;;1.10;;
29416;SDS011;28421;51.030;4.006;2023-04-12T18:38:06;1.80;;;0.95;;